Time;durP1;ratioP1;P1;durP2;ratioP2;P2;SDS_P1;SDS_P2;PMS_P1;PMS_P2;Temp;Humidity;BMP_temperature;BMP_pressure;BME280_temperature;BME280_humidity;BME280_pressure;Samples;Min_cycle;Max_cycle;Signal;HPM_P1;HPM_P2
2022/11/23 00:01:55;;;;;;;79.93;24.73;;;;;;;-13.40;56.77;97762.72;6198359;28;20308;-68
2022/11/23 00:04:57;;;;;;;79.97;30.27;;;;;;;-13.24;57.37;97762.53;6197735;28;20042;-67
2022/11/23 00:08:03;;;;;;;89.97;30.35;;;;;;;-13.07;56.66;97769.97;6198397;28;20042;-68
2022/11/23 00:11:07;;;;;;;80.55;27.98;;;;;;;-12.90;56.77;97776.59;6198412;28;20468;-68
2022/11/23 00:14:08;;;;;;;80.85;29.25;;;;;;;-12.75;57.52;97774.66;6198120;28;20045;-68
2022/11/23 00:17:09;;;;;;;76.95;28.08;;;;;;;-12.59;57.03;97775.28;6197348;28;20489;-68
2022/11/23 00:20:15;;;;;;;77.75;29.60;;;;;;;-12.49;56.41;97778.22;6197742;28;20077;-68
2022/11/23 00:23:17;;;;;;;113.50;39.13;;;;;;;-12.50;56.36;97776.50;6197519;28;20050;-68
2022/11/23 00:26:20;;;;;;;87.78;32.60;;;;;;;-12.37;56.44;97772.75;6197467;28;20192;-68
2022/11/23 00:29:24;;;;;;;141.15;47.30;;;;;;;-12.34;56.64;97777.09;6197518;28;20034;-68
2022/11/23 00:32:28;;;;;;;132.65;45.70;;;;;;;-12.36;57.07;97764.38;6196955;28;20046;-67
2022/11/23 00:35:31;;;;;;;145.57;51.17;;;;;;;-12.32;56.70;97776.34;6197083;28;20042;-68
2022/11/23 00:38:40;;;;;;;173.45;59.80;;;;;;;-12.29;56.09;97773.94;6197680;28;20506;-67
2022/11/23 00:41:41;;;;;;;273.65;94.03;;;;;;;-12.30;56.52;97762.06;6197105;28;20057;-68
2022/11/23 00:44:45;;;;;;;236.13;86.15;;;;;;;-12.19;56.83;97769.22;6197219;28;20137;-68
2022/11/23 00:47:49;;;;;;;303.17;110.40;;;;;;;-12.13;56.39;97766.91;6197532;28;20042;-67
2022/11/23 00:50:55;;;;;;;;;;;;;;;-12.02;56.31;97776.66;6197734;28;20046;-68
2022/11/23 00:53:59;;;;;;;285.33;102.90;;;;;;;-12.12;56.44;97758.50;6197284;28;19922;-68
2022/11/23 00:57:01;;;;;;;267.77;100.90;;;;;;;-12.02;56.26;97779.19;6196801;28;20061;-68
2022/11/23 01:00:11;;;;;;;286.00;102.03;;;;;;;-11.92;56.63;97771.91;6197290;28;20054;-67
2022/11/23 01:03:13;;;;;;;285.05;107.80;;;;;;;-11.81;56.67;97776.53;6196542;28;20141;-68
2022/11/23 01:06:21;;;;;;;289.23;100.03;;;;;;;-11.76;56.84;97784.34;6197281;28;20038;-68
2022/11/23 01:09:27;;;;;;;261.38;94.13;;;;;;;-11.70;57.17;97778.63;6195971;28;20054;-69
2022/11/23 01:12:28;;;;;;;195.38;74.30;;;;;;;-11.63;57.04;97785.63;6196431;28;20047;-68
2022/11/23 01:15:32;;;;;;;;;;;;;;;-11.59;56.80;97778.19;6197241;28;20054;-67
2022/11/23 01:18:33;;;;;;;140.50;50.90;;;;;;;-11.67;56.16;97763.50;6196759;28;19925;-67
2022/11/23 01:21:35;;;;;;;182.25;63.63;;;;;;;-11.60;56.48;97785.78;6196721;28;20042;-68
2022/11/23 01:24:39;;;;;;;119.75;45.35;;;;;;;-11.59;56.37;97769.72;6197084;28;20050;-68
2022/11/23 01:27:45;;;;;;;94.43;34.97;;;;;;;-11.57;56.06;97770.66;6196933;28;20429;-68
2022/11/23 01:30:48;;;;;;;91.50;31.60;;;;;;;-11.58;56.01;97764.69;6196650;28;20058;-68
2022/11/23 01:33:58;;;;;;;58.45;24.60;;;;;;;-11.58;56.08;97761.28;6196786;28;20046;-68
2022/11/23 01:36:59;;;;;;;63.05;27.55;;;;;;;-11.63;56.33;97756.06;6196589;28;20051;-68
2022/11/23 01:40:03;;;;;;;56.72;22.05;;;;;;;-11.62;56.21;97755.25;6196782;28;20517;-69
2022/11/23 01:43:12;;;;;;;;;;;;;;;-11.55;55.99;97756.31;6197163;28;20133;-68
2022/11/23 01:46:13;;;;;;;63.03;20.88;;;;;;;-11.61;55.90;97764.56;6195783;28;20352;-68
2022/11/23 01:49:15;;;;;;;61.03;23.80;;;;;;;-11.66;56.04;97760.13;6196169;28;20050;-68
2022/11/23 01:52:26;;;;;;;62.10;21.70;;;;;;;-11.74;56.17;97766.66;6195938;28;20057;-68
2022/11/23 01:55:31;;;;;;;56.55;22.02;;;;;;;-11.74;55.97;97771.72;6196607;28;20136;-67
2022/11/23 01:58:46;;;;;;;;;;;;;;;-11.73;55.97;97776.84;6196845;28;20046;-67
2022/11/23 02:01:50;;;;;;;38.40;14.93;;;;;;;-11.84;55.75;97776.44;6195649;28;19921;-68
2022/11/23 02:04:53;;;;;;;47.25;15.15;;;;;;;-11.88;55.72;97774.66;6196071;28;20513;-69
2022/11/23 02:07:59;;;;;;;30.48;12.80;;;;;;;-11.95;55.46;97767.59;6196148;28;20046;-69
2022/11/23 02:11:03;;;;;;;26.40;11.57;;;;;;;-11.99;55.58;97766.63;6195728;28;20077;-67
2022/11/23 02:14:12;;;;;;;29.27;10.82;;;;;;;-12.08;55.47;97755.28;6196271;28;20042;-68
2022/11/23 02:17:14;;;;;;;24.38;10.57;;;;;;;-12.14;55.39;97757.56;6196325;28;20050;-69
2022/11/23 02:20:20;;;;;;;31.25;13.18;;;;;;;-12.27;55.80;97749.50;6196268;28;20425;-67
2022/11/23 02:23:31;;;;;;;41.08;14.10;;;;;;;-12.19;55.91;97754.88;6182592;28;20062;-67
2022/11/23 02:26:35;;;;;;;40.58;13.75;;;;;;;-12.19;55.91;97761.63;6200618;28;20510;-68
2022/11/23 02:29:39;;;;;;;39.75;14.65;;;;;;;-12.18;55.76;97760.81;6200322;28;20556;-68
2022/11/23 02:32:42;;;;;;;40.38;15.65;;;;;;;-12.14;55.89;97780.38;6200068;28;20093;-67
2022/11/23 02:36:25;;;;;;;30.13;12.68;;;;;;;-12.12;55.95;97786.41;6198349;28;20069;-67
2022/11/23 02:39:34;;;;;;;59.17;19.08;;;;;;;-12.10;55.48;97787.34;6199021;28;20050;-67
2022/11/23 02:42:38;;;;;;;74.72;28.42;;;;;;;-12.07;55.83;97787.44;6199366;28;20062;-68
2022/11/23 02:45:51;;;;;;;96.50;38.75;;;;;;;-12.05;56.25;97790.91;6199416;28;20050;-67
2022/11/23 02:48:57;;;;;;;72.38;29.08;;;;;;;-12.04;55.67;97783.34;6199705;28;20046;-68
2022/11/23 02:52:02;;;;;;;84.72;28.35;;;;;;;-11.95;55.82;97780.28;6199943;28;20050;-68
2022/11/23 02:55:05;;;;;;;90.22;34.00;;;;;;;-11.91;55.58;97793.97;6199289;28;20050;-68
2022/11/23 02:58:08;;;;;;;144.32;50.58;;;;;;;-11.86;56.00;97798.41;6199098;28;20073;-68
2022/11/23 03:01:13;;;;;;;174.38;56.03;;;;;;;-11.86;56.25;97778.09;6199394;28;20046;-68
2022/11/23 03:04:14;;;;;;;111.30;39.17;;;;;;;-11.78;55.97;97783.41;6198606;28;20058;-68
2022/11/23 03:07:22;;;;;;;85.50;31.75;;;;;;;-11.79;55.94;97784.22;6199582;28;20050;-68
2022/11/23 03:10:23;;;;;;;60.35;22.20;;;;;;;-11.87;56.18;97773.81;6198791;28;20069;-68
2022/11/23 03:13:25;;;;;;;60.38;21.30;;;;;;;-11.82;56.04;97784.97;6198975;28;20047;-68
2022/11/23 03:16:28;;;;;;;;;;;;;;;-11.78;56.30;97769.03;6199335;28;20058;-68
2022/11/23 03:19:32;;;;;;;41.08;16.38;;;;;;;-11.77;55.94;97768.25;6181554;28;19928;-68
2022/11/23 03:22:38;;;;;;;33.13;15.20;;;;;;;-11.70;56.15;97773.53;6199113;28;20046;-67
2022/11/23 03:25:40;;;;;;;44.55;17.08;;;;;;;-11.64;55.83;97778.84;6198941;28;20042;-68
2022/11/23 03:28:41;;;;;;;33.83;15.48;;;;;;;-11.58;56.03;97774.84;6198810;28;20042;-68
2022/11/23 03:31:42;;;;;;;36.72;16.23;;;;;;;-11.50;56.31;97795.44;6198293;28;20046;-69
2022/11/23 03:34:46;;;;;;;47.13;17.88;;;;;;;-11.50;55.99;97797.97;6198388;28;20046;-68
2022/11/23 03:37:47;;;;;;;54.53;20.90;;;;;;;-11.56;56.05;97785.91;6198656;28;20505;-68
2022/11/23 03:40:48;;;;;;;47.13;18.23;;;;;;;-11.54;56.17;97806.31;6198695;28;20045;-67
2022/11/23 03:43:49;;;;;;;35.10;15.27;;;;;;;-11.54;56.26;97786.84;6198829;28;20052;-69
2022/11/23 03:46:58;;;;;;;35.58;14.13;;;;;;;-11.54;56.18;97780.91;6198779;28;20042;-68
2022/11/23 03:50:01;;;;;;;35.40;13.90;;;;;;;-11.58;56.24;97789.22;6198439;28;20497;-68
2022/11/23 03:53:07;;;;;;;34.22;14.77;;;;;;;-11.54;56.58;97796.16;6198288;28;20513;-68
2022/11/23 03:56:08;;;;;;;34.25;13.65;;;;;;;-11.62;56.25;97797.53;6198183;28;20089;-67
2022/11/23 03:59:14;;;;;;;;;;;;;;;-11.53;56.36;97806.34;6198371;28;20073;-68
2022/11/23 04:02:18;;;;;;;34.25;12.23;;;;;;;-11.55;56.45;97800.38;6198238;28;20400;-67
2022/11/23 04:05:20;;;;;;;40.97;15.77;;;;;;;-11.52;56.50;97797.03;6198186;28;20413;-68
2022/11/23 04:08:23;;;;;;;42.45;16.27;;;;;;;-11.44;56.29;97782.94;6197792;28;20042;-68
2022/11/23 04:11:30;;;;;;;39.88;16.52;;;;;;;-11.37;56.42;97782.38;6198019;28;20050;-67
2022/11/23 04:14:31;;;;;;;59.80;20.60;;;;;;;-11.26;56.30;97798.00;6197743;28;20038;-68
2022/11/23 04:17:37;;;;;;;45.03;19.73;;;;;;;-11.20;56.39;97782.09;6197621;28;20053;-68
2022/11/23 04:20:41;;;;;;;48.50;20.33;;;;;;;-11.08;56.40;97792.69;6197609;28;20429;-68
2022/11/23 04:23:44;;;;;;;59.80;20.90;;;;;;;-10.97;56.71;97796.44;6197627;28;20038;-68
2022/11/23 04:26:52;;;;;;;66.18;23.63;;;;;;;-10.85;56.93;97801.06;6197460;28;20046;-68
2022/11/23 04:29:54;;;;;;;60.40;23.90;;;;;;;-10.81;56.57;97786.78;6197570;28;20617;-68
2022/11/23 04:32:57;;;;;;;63.85;25.55;;;;;;;-10.59;56.90;97789.22;6197546;28;20049;-68
2022/11/23 04:36:01;;;;;;;79.47;31.35;;;;;;;-10.46;56.29;97783.72;6197703;28;20046;-68
2022/11/23 04:39:06;;;;;;;71.60;26.55;;;;;;;-10.30;56.84;97786.72;6197612;28;20050;-68
2022/11/23 04:42:12;;;;;;;72.65;25.77;;;;;;;-10.21;56.59;97789.53;6197200;28;20046;-68
2022/11/23 04:45:14;;;;;;;62.53;21.88;;;;;;;-10.08;56.52;97788.22;6196851;28;20038;-68
2022/11/23 04:48:18;;;;;;;54.17;23.20;;;;;;;-9.95;56.32;97778.47;6197225;28;20046;-68
2022/11/23 04:51:20;;;;;;;54.78;22.13;;;;;;;-9.81;56.07;97780.56;6196501;28;20061;-68
2022/11/23 04:54:21;;;;;;;59.05;22.58;;;;;;;-9.68;55.88;97775.00;6197380;28;20042;-67
2022/11/23 04:57:28;;;;;;;64.88;25.30;;;;;;;-9.54;55.81;97773.72;6197061;28;20044;-68
2022/11/23 05:00:30;;;;;;;79.55;29.08;;;;;;;-9.40;55.58;97780.88;6197078;28;20490;-68
2022/11/23 05:03:34;;;;;;;86.80;33.00;;;;;;;-9.31;55.52;97766.72;6196949;28;20046;-68
2022/11/23 05:06:35;;;;;;;91.95;33.85;;;;;;;-9.19;55.35;97766.16;6196810;28;20125;-68
2022/11/23 05:09:39;;;;;;;83.25;32.42;;;;;;;-9.09;55.59;97767.25;6196751;28;20050;-68
2022/11/23 05:12:46;;;;;;;74.68;30.90;;;;;;;-8.98;55.06;97770.09;6196731;28;20042;-68
2022/11/23 05:15:50;;;;;;;87.40;33.90;;;;;;;-8.86;55.21;97775.50;6196744;28;20058;-68
2022/11/23 05:18:54;;;;;;;86.32;30.85;;;;;;;-8.95;55.00;97749.78;6197018;28;20042;-68
2022/11/23 05:22:00;;;;;;;77.82;31.13;;;;;;;-8.66;54.88;97769.25;6196796;28;20045;-68
2022/11/23 05:25:01;;;;;;;70.85;29.92;;;;;;;-8.52;54.45;97768.69;6196794;28;20133;-68
2022/11/23 05:28:05;;;;;;;65.35;28.92;;;;;;;-8.42;54.23;97775.75;6196025;28;20050;-68
2022/11/23 05:31:09;;;;;;;65.88;28.52;;;;;;;-8.42;54.57;97766.41;6196568;28;20042;-69
2022/11/23 05:34:13;;;;;;;77.57;31.27;;;;;;;-8.28;54.15;97766.69;6196501;28;20420;-68
2022/11/23 05:37:20;;;;;;;74.38;29.45;;;;;;;-8.12;54.03;97762.81;6196524;28;20046;-68
2022/11/23 05:40:26;;;;;;;85.65;32.90;;;;;;;-7.91;54.26;97757.31;6196419;28;20421;-67
2022/11/23 05:43:27;;;;;;;72.85;31.33;;;;;;;-7.70;54.10;97764.56;6196147;28;20046;-68
2022/11/23 05:46:31;;;;;;;77.55;31.88;;;;;;;-7.62;53.44;97760.47;6196039;28;20061;-68
2022/11/23 05:49:37;;;;;;;69.28;29.42;;;;;;;-7.60;53.32;97747.75;6196335;28;20058;-68
2022/11/23 05:52:41;;;;;;;79.32;31.15;;;;;;;-7.58;53.26;97746.09;6195674;28;20073;-68
2022/11/23 05:55:43;;;;;;;83.00;31.75;;;;;;;-7.42;53.39;97752.34;6196162;28;20050;-68
2022/11/23 05:58:47;;;;;;;86.50;34.58;;;;;;;-7.35;53.66;97749.94;6201108;28;20129;-67
2022/11/23 06:01:51;;;;;;;89.65;36.80;;;;;;;-7.31;53.34;97750.84;6201149;28;20038;-68
2022/11/23 06:04:52;;;;;;;96.90;40.08;;;;;;;-7.25;53.19;97750.97;6200840;28;20065;-68
2022/11/23 06:07:55;;;;;;;92.22;36.72;;;;;;;-7.18;53.00;97751.97;6201070;28;20046;-68
2022/11/23 06:11:02;;;;;;;101.97;40.15;;;;;;;-7.13;53.36;97760.56;6200566;28;20524;-68
2022/11/23 06:14:08;;;;;;;92.63;39.58;;;;;;;-7.13;53.75;97755.44;6200099;28;20057;-68
2022/11/23 06:17:12;;;;;;;81.82;36.35;;;;;;;-7.03;53.56;97757.34;6200666;28;20094;-68
2022/11/23 06:20:15;;;;;;;81.82;31.98;;;;;;;-6.88;53.38;97773.00;6200505;28;20513;-67
2022/11/23 06:23:20;;;;;;;101.05;44.53;;;;;;;-6.80;53.15;97771.41;6200529;28;20038;-68
2022/11/23 06:26:24;;;;;;;114.57;44.97;;;;;;;-6.70;52.97;97777.56;6200385;28;20489;-68
2022/11/23 06:29:26;;;;;;;115.28;47.20;;;;;;;-6.57;53.17;97782.09;6200338;28;20473;-68
2022/11/23 06:32:27;;;;;;;99.55;43.95;;;;;;;-6.46;52.25;97782.22;6200249;28;20093;-68
2022/11/23 06:35:28;;;;;;;116.03;46.55;;;;;;;-6.36;52.10;97773.88;6200294;28;20042;-71
2022/11/23 06:38:34;;;;;;;115.35;47.00;;;;;;;-6.33;52.36;97768.81;6183271;28;20038;-69
2022/11/23 06:41:40;;;;;;;113.47;48.13;;;;;;;-6.17;52.56;97775.03;6200258;28;20054;-68
2022/11/23 06:44:44;;;;;;;107.45;44.55;;;;;;;-6.09;52.56;97775.13;6200037;28;20039;-68
2022/11/23 06:47:53;;;;;;;107.57;46.17;;;;;;;-5.96;52.31;97769.38;6199789;28;20108;-68
2022/11/23 06:50:57;;;;;;;102.32;45.15;;;;;;;-5.75;51.97;97771.31;6199727;28;20046;-68
2022/11/23 06:54:02;;;;;;;107.40;48.97;;;;;;;-5.60;52.05;97757.88;6199779;28;20046;-67
2022/11/23 06:57:09;;;;;;;111.10;46.00;;;;;;;-5.32;51.29;97774.47;6199744;28;20046;-68
2022/11/23 07:00:14;;;;;;;108.82;43.08;;;;;;;-5.10;51.47;97770.41;6199650;28;20049;-67
2022/11/23 07:03:23;;;;;;;107.30;44.90;;;;;;;-4.91;50.92;97770.63;6199544;28;20494;-68
2022/11/23 07:06:27;;;;;;;99.28;44.08;;;;;;;-4.82;50.51;97766.44;6199358;28;20046;-68
2022/11/23 07:09:33;;;;;;;109.05;44.53;;;;;;;-4.78;50.49;97765.63;6198412;28;20038;-68
2022/11/23 07:12:40;;;;;;;113.40;45.45;;;;;;;-4.77;50.35;97766.50;6199368;28;20054;-68
2022/11/23 07:15:46;;;;;;;118.93;50.00;;;;;;;-4.87;50.74;97759.53;6199171;28;20461;-68
2022/11/23 07:18:50;;;;;;;131.07;53.22;;;;;;;-5.01;50.54;97744.88;6198415;28;20054;-69
2022/11/23 07:21:54;;;;;;;131.75;54.00;;;;;;;-5.17;50.77;97753.25;6198847;28;20503;-67
2022/11/23 07:25:02;;;;;;;127.85;49.70;;;;;;;-5.24;51.30;97754.00;6199070;28;20050;-69
2022/11/23 07:28:10;;;;;;;157.23;57.63;;;;;;;-5.32;50.72;97755.63;6198417;28;20185;-68
2022/11/23 07:31:14;;;;;;;129.20;52.33;;;;;;;-5.47;51.19;97752.03;6198738;28;20425;-68
2022/11/23 07:34:18;;;;;;;136.98;54.35;;;;;;;-5.57;51.72;97745.06;6198605;28;20046;-68
2022/11/23 07:37:20;;;;;;;126.82;50.50;;;;;;;-5.63;51.56;97747.56;6198748;28;20133;-68
2022/11/23 07:40:27;;;;;;;109.10;44.90;;;;;;;-5.69;51.13;97747.47;6181002;28;20053;-68
2022/11/23 07:43:33;;;;;;;111.22;43.63;;;;;;;-5.71;50.88;97738.91;6198659;28;20043;-68
2022/11/23 07:46:37;;;;;;;101.55;39.58;;;;;;;-5.72;51.23;97726.91;6198520;28;20034;-69
2022/11/23 07:49:38;;;;;;;115.80;45.63;;;;;;;-5.69;50.76;97721.81;6198040;28;20053;-68
2022/11/23 07:52:42;;;;;;;97.53;39.80;;;;;;;-5.88;50.82;97672.91;6197677;28;20448;-68
2022/11/23 07:55:43;;;;;;;99.18;38.75;;;;;;;-5.55;50.31;97709.19;6198577;28;20042;-68
2022/11/23 07:58:44;;;;;;;100.28;36.92;;;;;;;-5.55;50.13;97704.91;6198227;28;20042;-68
2022/11/23 08:01:48;;;;;;;98.10;39.58;;;;;;;-5.52;50.13;97704.09;6198179;28;20046;-68
2022/11/23 08:04:54;;;;;;;104.47;39.92;;;;;;;-5.49;50.53;97692.19;6198042;28;20049;-67
2022/11/23 08:08:01;;;;;;;111.22;43.92;;;;;;;-5.36;50.28;97689.75;6197792;28;20042;-68
2022/11/23 08:11:04;;;;;;;105.55;40.38;;;;;;;-5.37;49.77;97703.44;6197806;28;20042;-68
2022/11/23 08:14:08;;;;;;;116.40;43.60;;;;;;;-5.46;49.68;97679.41;6198266;28;20046;-68
2022/11/23 08:17:14;;;;;;;97.45;40.80;;;;;;;-5.54;49.86;97681.00;6197731;28;20062;-69
2022/11/23 08:20:18;;;;;;;101.53;40.90;;;;;;;-5.59;50.01;97703.16;6197675;28;20046;-69
2022/11/23 08:23:20;;;;;;;108.35;40.45;;;;;;;-5.71;49.97;97701.31;6197239;28;20501;-69
2022/11/23 08:26:21;;;;;;;99.50;40.03;;;;;;;-5.84;50.55;97690.88;6197518;28;20038;-68
2022/11/23 08:29:24;;;;;;;112.30;43.45;;;;;;;-5.88;51.04;97695.13;6197674;28;20045;-69
2022/11/23 08:32:26;;;;;;;120.38;44.30;;;;;;;-5.95;51.03;97699.31;6197387;28;20039;-68
2022/11/23 08:35:27;;;;;;;109.55;43.47;;;;;;;-6.03;50.94;97690.66;6197008;28;20065;-69
2022/11/23 08:38:32;;;;;;;126.55;49.00;;;;;;;-6.00;50.67;97694.97;6197229;28;20038;-68
2022/11/23 08:41:36;;;;;;;122.05;44.97;;;;;;;-6.05;50.44;97692.38;6196720;28;20055;-68
2022/11/23 08:44:40;;;;;;;118.95;47.30;;;;;;;-6.16;50.87;97689.66;6197397;28;20042;-68
2022/11/23 08:47:51;;;;;;;115.07;45.95;;;;;;;-6.28;51.25;97693.72;6197361;28;20561;-69
2022/11/23 08:50:54;;;;;;;120.25;46.65;;;;;;;-6.37;51.59;97700.47;6197179;28;20103;-67
2022/11/23 08:53:55;;;;;;;121.97;49.22;;;;;;;-6.46;51.82;97695.19;6196363;28;20108;-68
2022/11/23 08:57:02;;;;;;;113.93;44.05;;;;;;;-6.45;52.15;97696.94;6197171;28;20038;-68
2022/11/23 09:00:06;;;;;;;125.50;49.42;;;;;;;-6.46;51.44;97705.44;6197267;28;20409;-68
2022/11/23 09:03:12;;;;;;;110.20;43.83;;;;;;;-6.59;51.59;97693.28;6197009;28;20038;-68
2022/11/23 09:06:19;;;;;;;110.15;45.83;;;;;;;-6.71;52.28;97698.19;6196208;28;20128;-68
2022/11/23 09:09:25;;;;;;;135.23;51.03;;;;;;;-6.79;52.54;97688.72;6196817;28;20047;-68
2022/11/23 09:12:29;;;;;;;127.32;47.72;;;;;;;-6.73;52.44;97687.94;6197005;28;20054;-68
2022/11/23 09:15:35;;;;;;;119.45;48.92;;;;;;;-6.66;52.93;97681.22;6196789;28;20058;-69
2022/11/23 09:18:43;;;;;;;132.80;49.75;;;;;;;-6.53;52.50;97678.03;6196848;28;20049;-68
2022/11/23 09:21:49;;;;;;;137.95;51.95;;;;;;;-6.38;52.14;97672.25;6196674;28;20043;-68
2022/11/23 09:24:53;;;;;;;126.50;46.53;;;;;;;-6.33;51.97;97666.38;6196661;28;20129;-69
2022/11/23 09:27:59;;;;;;;125.35;47.00;;;;;;;-6.30;52.58;97665.56;6196725;28;20039;-69
2022/11/23 09:31:05;;;;;;;118.95;46.28;;;;;;;-6.33;52.47;97651.00;6197736;28;20452;-69
2022/11/23 09:34:13;;;;;;;122.22;43.83;;;;;;;-6.35;52.35;97644.97;6200845;28;20101;-68
2022/11/23 09:37:19;;;;;;;104.85;41.45;;;;;;;-6.30;52.31;97654.44;6201665;28;20092;-68
2022/11/23 09:40:24;;;;;;;89.18;36.55;;;;;;;-6.29;52.62;97661.28;6201036;28;20042;-67
2022/11/23 09:43:31;;;;;;;91.95;36.53;;;;;;;-6.26;52.34;97658.75;6200574;28;20057;-68
2022/11/23 09:47:14;;;;;;;91.30;35.25;;;;;;;-6.22;53.05;97652.84;6200952;28;20043;-67
2022/11/23 09:50:24;;;;;;;100.78;38.38;;;;;;;-6.26;52.75;97648.53;6200444;28;20398;-68
2022/11/23 09:53:38;;;;;;;85.88;33.90;;;;;;;-6.37;53.41;97659.50;6200364;28;20417;-68
2022/11/23 09:56:45;;;;;;;102.70;37.45;;;;;;;-6.51;53.42;97640.50;6200196;28;20046;-67
2022/11/23 09:59:59;;;;;;;90.60;37.60;;;;;;;-6.59;54.10;97644.66;6183596;28;20049;-68
2022/11/23 10:03:03;;;;;;;82.90;34.60;;;;;;;-6.55;53.75;97649.81;6200934;28;20505;-69
2022/11/23 10:06:30;;;;;;;87.18;34.13;;;;;;;-6.50;53.88;97647.34;6200839;28;20041;-68
2022/11/23 10:10:08;;;;;;;87.60;35.03;;;;;;;-6.50;54.51;97642.22;6200366;28;20418;-68
2022/11/23 10:13:12;;;;;;;89.47;33.20;;;;;;;-6.44;54.21;97639.75;6199615;28;20572;-68
2022/11/23 10:16:23;;;;;;;82.82;31.02;;;;;;;-6.37;54.11;97628.75;6200103;28;20058;-69
2022/11/23 10:19:46;;;;;;;88.28;33.08;;;;;;;-6.33;54.33;97635.63;6200362;28;20137;-68
2022/11/23 10:22:56;;;;;;;84.22;29.95;;;;;;;-6.35;54.30;97627.06;6200387;28;20054;-69
2022/11/23 10:26:03;;;;;;;75.10;31.98;;;;;;;-6.31;54.08;97628.00;6200512;28;20038;-69
2022/11/23 10:29:20;;;;;;;71.45;30.58;;;;;;;-6.34;54.55;97631.38;6200226;28;20061;-68
2022/11/23 10:32:34;;;;;;;76.40;30.88;;;;;;;-6.34;54.62;97633.91;6200191;28;20081;-67
2022/11/23 10:35:37;;;;;;;82.47;30.95;;;;;;;-6.43;55.10;97618.41;6200211;28;20054;-68
2022/11/23 10:38:46;;;;;;;67.88;29.08;;;;;;;-6.51;56.10;97614.03;6199655;28;20038;-68
2022/11/23 10:41:49;;;;;;;80.15;30.60;;;;;;;-6.53;55.96;97611.47;6199353;28;20046;-69
2022/11/23 10:44:55;;;;;;;78.65;30.65;;;;;;;-6.56;56.18;97606.31;6199232;28;20421;-69
2022/11/23 10:48:04;;;;;;;77.82;31.52;;;;;;;-6.60;56.65;97612.19;6199596;28;20042;-69
2022/11/23 10:51:30;;;;;;;74.05;28.73;;;;;;;-6.61;56.94;97605.38;6199502;28;20548;-69
2022/11/23 10:54:46;;;;;;;75.78;30.85;;;;;;;-6.67;57.39;97607.84;6199089;28;20528;-69
2022/11/23 10:57:54;;;;;;;83.65;31.00;;;;;;;-6.70;57.63;97597.56;6199290;28;20140;-69
2022/11/23 11:01:03;;;;;;;74.72;30.70;;;;;;;-6.72;57.98;97601.78;6199446;28;20042;-70
2022/11/23 11:04:24;;;;;;;46.63;20.80;;;;;;;-6.70;57.33;97587.31;6199657;28;20046;-68
2022/11/23 11:07:29;;;;;;;42.42;18.25;;;;;;;-6.78;58.04;97588.06;6199621;28;20069;-69
2022/11/23 11:10:42;;;;;;;37.20;17.45;;;;;;;-6.96;58.75;97582.69;6198452;28;20064;-69
2022/11/23 11:13:46;;;;;;;35.08;15.25;;;;;;;-6.99;58.55;97598.00;6198564;28;20050;-70
2022/11/23 11:16:51;;;;;;;;;;;;;;;-6.96;58.45;97595.47;6199225;28;20053;-69
2022/11/23 11:19:53;;;;;;;23.30;9.60;;;;;;;-6.97;58.87;97592.88;6199034;28;20400;-69
2022/11/23 11:23:01;;;;;;;;;;;;;;;-7.05;58.41;97592.75;6198810;28;20104;-68
2022/11/23 11:26:21;;;;;;;21.65;10.18;;;;;;;-7.07;58.84;97592.75;6198818;28;20448;-69
2022/11/23 11:29:32;;;;;;;28.08;12.68;;;;;;;-7.06;58.77;97588.50;6198575;28;20057;-68
2022/11/23 11:33:02;;;;;;;9.52;5.28;;;;;;;-7.05;59.43;97578.28;6198711;28;20429;-69
2022/11/23 11:36:08;;;;;;;8.50;4.90;;;;;;;-6.92;60.79;97570.78;6198778;28;20046;-68
2022/11/23 11:39:21;;;;;;;7.00;3.63;;;;;;;-7.18;61.80;97575.50;6198615;28;20096;-67
2022/11/23 11:43:04;;;;;;;8.48;3.80;;;;;;;-7.35;62.39;97565.88;6198671;28;20046;-69
2022/11/23 11:46:28;;;;;;;5.75;3.08;;;;;;;-7.43;62.54;97567.44;6189565;28;20054;-68
2022/11/23 11:49:39;;;;;;;5.35;3.25;;;;;;;-7.54;63.00;97574.91;6198544;28;20046;-68
2022/11/23 11:52:45;;;;;;;4.15;2.65;;;;;;;-7.53;63.03;97573.22;6198364;28;20049;-68
2022/11/23 11:56:29;;;;;;;3.38;2.47;;;;;;;-7.59;63.25;97575.66;6198026;28;20413;-68
2022/11/23 11:59:43;;;;;;;5.25;2.70;;;;;;;-7.61;63.36;97568.00;6166102;28;20085;-69
2022/11/23 12:03:17;;;;;;;7.50;3.25;;;;;;;-7.55;63.59;97577.47;6198083;28;20452;-68
2022/11/23 12:06:31;;;;;;;6.57;2.92;;;;;;;-7.56;64.03;97565.50;6198130;28;20432;-69
2022/11/23 12:09:43;;;;;;;7.85;4.40;;;;;;;-7.53;64.37;97560.44;6197696;28;20054;-70
2022/11/23 12:12:51;;;;;;;10.60;4.63;;;;;;;-7.74;64.35;97546.47;6197192;28;20069;-69
2022/11/23 12:16:18;;;;;;;6.05;2.90;;;;;;;-7.62;64.70;97548.34;6197831;28;20054;-68
2022/11/23 12:19:30;;;;;;;6.80;3.72;;;;;;;-7.74;64.69;97546.47;6197370;28;20142;-68
2022/11/23 12:22:56;;;;;;;6.43;3.72;;;;;;;-7.76;65.20;97532.78;6197238;28;20200;-68
2022/11/23 12:26:19;;;;;;;3.70;2.83;;;;;;;-7.69;65.49;97539.75;6197758;28;20541;-68
2022/11/23 12:29:26;;;;;;;7.00;3.67;;;;;;;-7.73;65.62;97537.97;6197679;28;20412;-68
2022/11/23 12:32:45;;;;;;;6.95;3.47;;;;;;;-7.79;65.47;97522.50;6196320;28;20093;-68
2022/11/23 12:36:14;;;;;;;8.00;3.75;;;;;;;-7.66;65.32;97527.84;6197596;28;20493;-69
2022/11/23 12:39:27;;;;;;;5.88;3.10;;;;;;;-7.60;65.47;97523.69;6196608;28;20053;-68
2022/11/23 12:42:47;;;;;;;7.43;3.47;;;;;;;-7.54;65.12;97520.38;6197308;28;20509;-68
2022/11/23 12:46:08;;;;;;;6.00;3.78;;;;;;;-7.53;65.46;97520.44;6197290;28;20398;-69
2022/11/23 12:49:37;;;;;;;6.38;3.97;;;;;;;-7.49;65.15;97523.88;6196958;28;20054;-68
2022/11/23 12:52:56;;;;;;;6.68;3.95;;;;;;;-7.54;65.42;97517.81;6192060;28;20054;-67
2022/11/23 12:56:22;;;;;;;6.70;4.00;;;;;;;-7.47;65.37;97525.63;6196578;28;20049;-68
2022/11/23 12:59:38;;;;;;;5.13;2.85;;;;;;;-7.51;65.07;97528.09;6179460;28;20429;-68
2022/11/23 13:02:55;;;;;;;6.40;3.45;;;;;;;-7.52;64.85;97518.72;6195513;28;20053;-68
2022/11/23 13:06:24;;;;;;;5.72;3.03;;;;;;;-7.54;64.88;97520.38;6194756;28;20061;-68
2022/11/23 13:09:39;;;;;;;7.38;3.25;;;;;;;-7.29;64.57;97512.28;6196904;28;20047;-69
2022/11/23 13:12:58;;;;;;;5.32;2.90;;;;;;;-7.56;64.71;97505.00;6196398;28;20062;-69
2022/11/23 13:16:14;;;;;;;4.45;2.90;;;;;;;-7.62;65.58;97498.94;6195479;28;20046;-68
2022/11/23 13:19:53;;;;;;;5.20;2.80;;;;;;;-7.61;65.61;97503.22;6196855;28;20049;-68
2022/11/23 13:22:57;;;;;;;5.60;2.97;;;;;;;-7.61;65.02;97495.56;6184479;28;20117;-68
2022/11/23 13:26:24;;;;;;;4.75;2.92;;;;;;;-7.56;65.39;97499.03;6195853;28;20561;-68
2022/11/23 13:29:48;;;;;;;5.78;3.25;;;;;;;-7.54;65.02;97503.34;6196346;28;20141;-68
2022/11/23 13:32:53;;;;;;;5.70;3.40;;;;;;;-7.51;64.95;97487.22;6196447;28;20057;-68
2022/11/23 13:35:59;;;;;;;4.15;2.67;;;;;;;-7.54;64.87;97498.25;6196598;28;20052;-68
2022/11/23 13:39:01;;;;;;;5.88;3.30;;;;;;;-7.53;64.96;97499.09;6179116;28;20073;-68
2022/11/23 13:42:04;;;;;;;3.30;2.38;;;;;;;-7.34;65.48;97496.00;6196615;28;20042;-68
2022/11/23 13:45:20;;;;;;;3.70;2.40;;;;;;;-7.45;65.00;97495.81;6196524;28;20124;-68
2022/11/23 13:48:25;;;;;;;4.25;2.58;;;;;;;-7.56;65.37;97493.94;6196562;28;20093;-69
2022/11/23 13:51:30;;;;;;;4.70;2.00;;;;;;;-7.68;65.41;97485.22;6196193;28;20039;-68
2022/11/23 13:54:36;;;;;;;5.38;2.53;;;;;;;-7.62;65.60;97498.94;6196137;28;20070;-69
2022/11/23 13:57:42;;;;;;;4.68;2.63;;;;;;;-7.55;65.61;97491.41;6196143;28;20049;-68
2022/11/23 14:00:53;;;;;;;4.20;2.28;;;;;;;-7.60;65.62;97489.63;6196257;28;20047;-68
2022/11/23 14:03:55;;;;;;;4.45;2.78;;;;;;;-7.66;65.46;97489.53;6195705;28;20054;-68
2022/11/23 14:07:17;;;;;;;6.07;3.22;;;;;;;-7.62;65.23;97489.59;6195919;28;20050;-68
2022/11/23 14:10:30;;;;;;;4.05;2.83;;;;;;;-7.61;65.11;97485.31;6196191;28;20049;-68
2022/11/23 14:13:34;;;;;;;3.47;2.20;;;;;;;-7.62;65.63;97488.72;6195675;28;20551;-69
2022/11/23 14:17:18;;;;;;;5.68;3.30;;;;;;;-7.56;64.92;97482.00;6196667;28;20059;-69
2022/11/23 14:21:00;;;;;;;11.80;4.57;;;;;;;-7.59;65.32;97468.34;6200424;28;20097;-69
2022/11/23 14:24:14;;;;;;;16.23;5.93;;;;;;;-7.59;65.36;97470.88;6200210;28;20049;-69